Airfield :
LOGIN :

Register | Disclaimer

   EN    FR    IT 

 










Legend :    VFR   Marginal VFR   IFR   Intensive IFR   Very Intensive IFR
Visi :
Ceiling :
>= 8 km
>= 3000ft
5 to 8 km
1000 to 3000 ft
1500m to 5 km
500 to 1000 ft
800 to 1500m
200 to 500 ft
< 800m
< 200 ft
Symbols :   Thunderstorms  Fog  Heavy snow  Heavy precipitations  Wind > 20 kt
SIGMETs :     Misc.  Thunderstorms  Icing  Turbulence  Mountain Waves  Volcanic Ashes







- Airport Elevation : 100 ft


EBDT - Schaffen

CURRENT METAR :
  • 210755Z AUTO 19010KT 9999 FEW017/// SCT020/// BKN055/// 14/13 Q1010 WHT

EXPIRED METARs :
  • 210750Z AUTO 19009KT 9999 FEW017/// SCT021/// BKN075/// 14/13 Q1010 WHT
  • 210725Z AUTO 19010KT 9999 FEW020/// SCT032/// BKN055/// 13/12 Q1010 BLU
  • 210722Z AUTO 19010KT 9999 FEW008/// BKN030/// OVC085/// 13/12 Q1010 BLU
  • 210711Z 19010KT 9999 SCT010 BKN025 13/12 Q1010 GRN WHT TEMPO GRN
  • 210655Z 19010KT 7000 -RA SCT008 SCT020 BKN040 13/12 Q1010 GRN GRN
  • 210646Z 19011KT 7000 -RA SCT008 SCT020 BKN040 13/12 Q1010 GRN GRN
  • 210625Z 18010KT 9999 FEW015 SCT020 BKN040 12/11 Q1010 WHT WHT TEMPO GRN
  • 210620Z 18009KT 9999 FEW015 BKN035 12/11 Q1010 BLU BLU TEMPO WHT
  • 210555Z 19009KT 6000 FEW015 SCT035 BKN080 12/11 Q1010 WHT WHT BECMG GRN
  • 210554Z 19009KT 6000 FEW015 SCT035 BKN080 12/10 Q1010 WHT WHT BECMG GRN

TAF TAF EBDT
Valid from the 21 at 07:00 until the 21 at 16:00 UTC


210541Z 2107/2116 20010KT 8000 SCT020 BKN030
TEMPO 2107/2112 6000 -RA -SHRA SCT015 BKN025
TEMPO 2108/2112 20015G25KT 4000 SHRA SCT007 BKN015TCU
BECMG 2112/2114 20012G30KT SCT030
No reported NOTAMs for that airfield.



MET'MAP, your aeronautical weather chart ! - Copyright ORBIFLY December 2007 - Disclaimer

ORBIFLY MET'MAP TEAM :

Programming & Development : Alexandra Zaïnal
Concept & Development : Baudouin d'Aumeries
Co-Development & Prog : Marc-Olivier Méhu
Technical & hardware support : Manuel Goepfert

Contact : metmap@orbifly.com




SOURCES & CREDITS :

   NOAA